Tropical Cyclones
[Index]
Main Index Home Page Stock Weather Photos Extreme Storms Discussion Storm News and Storm Chasing Reports Tropical Cyclones / Hurricanes / Typhoons Weather Data and Links Wild Fires / Bushfires Weather Observation Techniques Weather Picture Catalogue Tornado Pictures and Reports Stock Video Footage and DVDs for sale
Season 2000-2001 Tropical Cyclone WALTER Track Map
Season 2000-2001 Summaries: [BoM-AU] [JTWC-AU] [JTWC-SIO] [JTWC-SPAC] [JTWC-SH]
<<- Previous TC | BoM 2000-2001 Season | Next TC ->>

click for intensity scale information  Lat/long Grid: Show Hide

 Date Labels: Show Hide

Bureau of Meteorology Tropical Cyclone Data

Name: WALTER
Number: 849 / 200001_07

01 Apr 2001 04:00 UTC to 08 Apr 2001 10:00 UTC

    date/time    lat    long    hPa   cat  kts
2001-04-01 04   10.7   110.7   1003         25          
2001-04-01 10   10.3   110.0   1000         25          
2001-04-01 16   10.1   109.5    998         30          
2001-04-01 22    9.9   109.0    995    1    35          
2001-04-02 04    9.7   107.9    995    1    35          
2001-04-02 10    9.5   106.9    992    1    40          
2001-04-02 16    9.5   105.6    990    1    40          
2001-04-02 22    9.6   104.5    988    1    45          
2001-04-03 04    9.7   103.5    985    2    50          
2001-04-03 10    9.8   102.7    980    2    50          
2001-04-03 16    9.9   101.7    978    2    50          
2001-04-03 22   10.0   100.9    970    3    60          
2001-04-04 04   10.1   100.0    965    3    75          
2001-04-04 10   10.3    98.9    950    4    80          
2001-04-04 16   10.6    98.1    945    4    80          
2001-04-04 22   11.0    96.9    940    4    80          
2001-04-05 04   11.5    96.6    940    4    80          
2001-04-05 10   11.8    96.3    945    4    80          
2001-04-05 16   12.1    96.0    945    4    80          
2001-04-05 22   12.7    95.4    950    4    80          
2001-04-06 04   13.3    94.7    955    4    80          
2001-04-06 10   14.0    94.4    960    3    75          
2001-04-06 16   14.4    94.3    965    3    70          
2001-04-06 22   15.0    94.4    970    3    65          
2001-04-07 04   16.5    95.0    975    2    65          
2001-04-07 10   18.2    95.5    980    2    55          
2001-04-07 16   18.9    95.3    985    2    50          
2001-04-07 22   19.7    95.0    990    1    40          
2001-04-08 04   20.6    94.8    994    1    35          
2001-04-08 10   21.7    94.4    998         30          
Winds are 10-min average.

Tropical cyclone tracks developed by Michael Bath using data from the Bureau of Meteorology and Google Maps.


[Australian Severe Weather index] [Copyright Notice] [Email Contacts] [Search This Site] [Privacy Policy]
Document: tropical_cyclone_walter.htm Updated: 29 June 2017